Time;durP1;ratioP1;P1;durP2;ratioP2;P2;SDS_P1;SDS_P2;PMS_P1;PMS_P2;Temp;Humidity;BMP_temperature;BMP_pressure;BME280_temperature;BME280_humidity;BME280_pressure;Samples;Min_cycle;Max_cycle;Signal;HPM_P1;HPM_P2
2022/07/25 00:00:07;;;;;;;7.87;7.07;;;19.60;43.00;;;;;;5092088;28;20408;-70
2022/07/25 00:02:33;;;;;;;7.57;6.97;;;19.50;37.80;;;;;;5094404;28;20399;-75
2022/07/25 00:05:02;;;;;;;7.83;7.23;;;19.40;40.10;;;;;;5078097;28;20466;-77
2022/07/25 00:07:28;;;;;;;8.10;7.40;;;19.40;45.40;;;;;;5074935;28;20424;-70
2022/07/25 00:09:54;;;;;;;8.93;8.00;;;19.30;63.90;;;;;;5089311;28;20416;-76
2022/07/25 00:12:21;;;;;;;7.77;7.07;;;19.30;61.40;;;;;;5093204;28;20491;-76
2022/07/25 00:14:47;;;;;;;8.20;7.20;;;19.30;58.10;;;;;;5074718;28;20511;-70
2022/07/25 00:17:13;;;;;;;7.80;7.10;;;19.30;62.20;;;;;;5079148;28;20569;-75
2022/07/25 00:19:39;;;;;;;7.97;6.10;;;19.30;57.40;;;;;;5094967;28;20482;-69
2022/07/25 00:22:12;;;;;;;9.37;7.20;;;19.20;61.30;;;;;;5090793;28;20276;-70
2022/07/25 00:24:41;;;;;;;7.23;6.57;;;19.20;69.90;;;;;;5074268;28;20412;-76
2022/07/25 00:27:07;;;;;;;7.87;7.17;;;19.20;63.00;;;;;;5075727;28;20417;-69
2022/07/25 00:29:33;;;;;;;11.50;7.37;;;19.10;67.70;;;;;;5074468;28;20756;-69
2022/07/25 00:31:59;;;;;;;8.20;7.40;;;19.10;76.80;;;;;;5082790;28;20514;-76
2022/07/25 00:34:25;;;;;;;13.07;9.17;;;19.10;80.90;;;;;;5093850;28;20724;-72
2022/07/25 00:36:54;;;;;;;9.70;8.47;;;19.10;67.80;;;;;;5090830;28;20451;-70
2022/07/25 00:39:20;;;;;;;8.30;7.00;;;19.10;91.50;;;;;;5084909;28;20436;-76
2022/07/25 00:41:46;;;;;;;9.20;7.80;;;19.10;74.00;;;;;;5094501;28;20444;-76
2022/07/25 00:44:32;;;;;;;11.90;8.30;;;19.10;70.80;;;;;;5092540;28;20477;-69
2022/07/25 00:46:58;;;;;;;8.30;7.50;;;19.20;75.30;;;;;;5094344;28;20403;-73
2022/07/25 00:49:25;;;;;;;9.10;8.20;;;19.30;71.70;;;;;;5076262;28;20502;-76
2022/07/25 00:51:52;;;;;;;9.03;8.10;;;19.30;76.10;;;;;;5094466;28;20453;-70
2022/07/25 00:54:18;;;;;;;8.50;7.70;;;19.30;78.40;;;;;;5074486;28;20432;-70
2022/07/25 00:56:48;;;;;;;7.30;6.60;;;19.40;60.90;;;;;;5073199;28;20543;-75
2022/07/25 00:59:15;;;;;;;9.43;8.53;;;19.40;84.80;;;;;;5090868;28;20455;-74
2022/07/25 01:01:46;;;;;;;8.97;8.10;;;19.40;85.60;;;;;;5094184;28;20430;-76
2022/07/25 01:04:13;;;;;;;8.33;7.47;;;19.40;87.90;;;;;;5080012;28;20448;-76
2022/07/25 01:06:39;;;;;;;11.20;8.90;;;19.40;73.50;;;;;;5073511;28;20401;-70
2022/07/25 01:09:06;;;;;;;10.50;8.17;;;19.40;81.90;;;;;;5088248;28;20431;-77
2022/07/25 01:11:41;;;;;;;8.20;7.50;;;19.50;62.50;;;;;;5093361;28;20400;-77
2022/07/25 01:14:07;;;;;;;8.87;8.03;;;19.50;81.20;;;;;;5078200;28;20440;-72
2022/07/25 01:16:33;;;;;;;8.80;7.90;;;19.60;63.60;;;;;;5073140;28;20455;-74
2022/07/25 01:28:58;;;;;;;9.80;7.07;;;19.70;74.50;;;;;;5093345;28;20490;-71
2022/07/25 01:31:25;;;;;;;7.70;7.00;;;19.60;62.70;;;;;;5093609;28;20391;-77
2022/07/25 01:33:53;;;;;;;7.77;6.80;;;19.60;68.80;;;;;;5055367;28;20482;-72
2022/07/25 01:36:19;;;;;;;8.10;7.40;;;19.60;67.00;;;;;;5072904;28;20478;-70
2022/07/25 01:38:45;;;;;;;8.17;7.47;;;19.50;64.70;;;;;;5072529;28;20454;-74
2022/07/25 01:41:11;;;;;;;8.07;7.27;;;19.50;71.00;;;;;;5093381;28;20431;-74
2022/07/25 01:43:39;;;;;;;7.90;7.20;;;19.50;62.60;;;;;;5088429;28;20169;-69
2022/07/25 01:46:05;;;;;;;7.70;6.53;;;19.50;71.20;;;;;;5093422;28;20403;-70
2022/07/25 01:48:34;;;;;;;8.80;7.27;;;19.60;70.50;;;;;;5092720;28;20780;-76
2022/07/25 01:51:09;;;;;;;;;;;;;;;;;;;;;
2022/07/25 01:53:36;;;;;;;8.30;7.50;;;19.70;66.30;;;;;;5072277;28;20416;-76
2022/07/25 01:56:02;;;;;;;8.63;7.83;;;19.80;49.00;;;;;;5072778;28;20534;-76
2022/07/25 01:58:47;;;;;;;8.67;7.50;;;19.80;63.70;;;;;;5072501;28;20201;-69
2022/07/25 02:01:13;;;;;;;9.33;8.13;;;19.90;63.10;;;;;;5093153;28;20487;-76
2022/07/25 02:03:39;;;;;;;7.63;7.03;;;19.90;69.00;;;;;;5073788;28;20503;-69
2022/07/25 02:06:06;;;;;;;8.73;6.80;;;19.90;52.90;;;;;;5055024;28;20409;-69
2022/07/25 02:08:33;;;;;;;8.60;7.43;;;19.90;54.60;;;;;;5089463;28;20506;-70
2022/07/25 02:10:59;;;;;;;7.57;6.60;;;19.90;52.70;;;;;;5092415;28;20730;-69
2022/07/25 02:13:26;;;;;;;8.30;6.80;;;19.90;52.20;;;;;;5090259;28;20477;-69
2022/07/25 02:15:52;;;;;;;9.23;7.50;;;19.80;43.50;;;;;;5093126;28;20505;-71
2022/07/25 02:18:18;;;;;;;8.20;7.50;;;19.80;46.40;;;;;;5076246;28;20436;-76
2022/07/25 02:20:44;;;;;;;8.37;6.57;;;19.80;35.90;;;;;;5072735;28;20454;-76
2022/07/25 02:23:10;;;;;;;8.40;7.20;;;19.70;57.40;;;;;;5087563;28;20411;-77
2022/07/25 02:25:36;;;;;;;8.30;7.43;;;19.80;50.70;;;;;;5097042;28;20904;-76
2022/07/25 02:28:05;;;;;;;8.00;7.30;;;19.80;50.90;;;;;;5083218;28;20421;-77
2022/07/25 02:30:31;;;;;;;8.00;7.40;;;19.70;64.70;;;;;;5076883;28;20912;-75
2022/07/25 02:33:00;;;;;;;8.33;7.43;;;19.70;34.10;;;;;;5087060;28;20415;-69
2022/07/25 02:35:26;;;;;;;8.07;7.27;;;19.80;63.70;;;;;;5096789;28;20455;-72
2022/07/25 02:37:52;;;;;;;10.50;7.40;;;19.80;52.00;;;;;;5095168;28;20491;-73
2022/07/25 02:40:18;;;;;;;7.17;6.57;;;19.80;38.80;;;;;;5096855;28;20454;-76
2022/07/25 02:42:44;;;;;;;8.40;7.53;;;19.80;66.20;;;;;;5091818;28;20497;-76
2022/07/25 02:45:10;;;;;;;7.20;6.50;;;19.80;43.60;;;;;;5096162;28;20502;-73
2022/07/25 02:47:36;;;;;;;9.83;7.60;;;19.90;42.70;;;;;;5095897;28;20424;-69
2022/07/25 02:50:03;;;;;;;7.73;7.10;;;19.90;35.50;;;;;;5096744;28;20392;-69
2022/07/25 02:52:29;;;;;;;7.67;6.80;;;19.90;10.50;;;;;;5086741;28;21250;-76
2022/07/25 02:54:55;;;;;;;8.13;7.37;;;20.00;18.90;;;;;;5076279;28;20420;-70
2022/07/25 02:57:21;;;;;;;7.60;6.93;;;20.00;25.50;;;;;;5086669;28;20280;-70
2022/07/25 02:59:47;;;;;;;7.23;6.63;;;20.00;8.30;;;;;;5096458;28;20256;-69
2022/07/25 03:02:13;;;;;;;8.13;7.37;;;20.00;3.00;;;;;;5094334;28;20503;-69
2022/07/25 03:04:39;;;;;;;6.70;6.13;;;20.00;3.80;;;;;;5096215;28;20488;-76
2022/07/25 03:07:05;;;;;;;13.43;7.40;;;20.00;3.20;;;;;;5088809;28;20420;-69
2022/07/25 03:09:34;;;;;;;7.70;7.10;;;20.00;1.00;;;;;;5076047;28;20159;-70
2022/07/25 03:12:03;;;;;;;7.73;6.80;;;20.00;1.00;;;;;;5081498;28;20427;-76
2022/07/25 03:14:28;;;;;;;7.13;6.30;;;20.00;1.00;;;;;;5095593;28;20507;-69
2022/07/25 03:16:55;;;;;;;7.30;6.53;;;20.00;1.00;;;;;;5091152;28;20558;-69
2022/07/25 03:19:21;;;;;;;7.90;7.10;;;20.00;1.00;;;;;;5075148;28;20177;-77
2022/07/25 03:21:46;;;;;;;8.13;6.50;;;20.00;1.00;;;;;;5078299;28;20408;-69
2022/07/25 03:24:12;;;;;;;6.63;6.03;;;20.00;1.00;;;;;;5094924;28;20213;-69
2022/07/25 03:26:41;;;;;;;7.30;6.60;;;20.00;1.00;;;;;;5094737;28;20196;-76
2022/07/25 03:29:07;;;;;;;6.60;6.00;;;20.00;1.00;;;;;;5075877;28;20499;-76
2022/07/25 03:31:33;;;;;;;8.53;7.07;;;19.90;1.00;;;;;;5075586;28;20500;-77
2022/07/25 03:33:59;;;;;;;7.23;6.33;;;20.00;1.00;;;;;;5078271;28;20497;-76
2022/07/25 03:36:25;;;;;;;6.10;5.60;;;20.00;1.00;;;;;;5095317;28;20443;-69
2022/07/25 03:38:51;;;;;;;7.90;6.90;;;20.00;1.00;;;;;;5077020;28;20170;-69
2022/07/25 03:41:17;;;;;;;6.80;6.10;;;20.00;1.00;;;;;;5095567;28;20395;-72
2022/07/25 03:43:43;;;;;;;6.63;6.07;;;20.00;1.00;;;;;;5093950;28;20190;-76
2022/07/25 03:46:09;;;;;;;6.73;5.63;;;20.00;1.00;;;;;;5094833;28;20419;-76
2022/07/25 03:48:35;;;;;;;6.07;5.47;;;20.00;1.00;;;;;;5095560;28;20404;-69
2022/07/25 03:51:01;;;;;;;6.50;5.90;;;20.00;1.00;;;;;;5091425;28;20174;-69
2022/07/25 03:53:27;;;;;;;6.27;5.77;;;20.00;1.00;;;;;;5074185;28;20404;-75
2022/07/25 03:55:52;;;;;;;5.97;5.40;;;20.00;1.00;;;;;;5076585;28;20480;-75
2022/07/25 03:58:18;;;;;;;15.00;5.53;;;20.00;1.00;;;;;;5077320;28;20264;-69
2022/07/25 04:00:47;;;;;;;5.67;5.17;;;20.10;1.00;;;;;;5094754;28;20398;-75
2022/07/25 04:03:14;;;;;;;6.17;4.97;;;20.10;1.00;;;;;;5056306;28;20415;-76
2022/07/25 04:05:42;;;;;;;5.37;4.90;;;20.10;1.00;;;;;;5075042;28;20474;-69
2022/07/25 04:08:08;;;;;;;6.40;5.50;;;20.10;1.00;;;;;;5094327;28;20426;-76
2022/07/25 04:10:34;;;;;;;6.83;5.53;;;20.20;1.00;;;;;;5075296;28;20415;-76
2022/07/25 04:12:59;;;;;;;6.77;5.23;;;20.20;1.00;;;;;;5091473;28;20177;-69
2022/07/25 04:18:52;;;;;;;5.80;5.27;;;20.30;1.00;;;;;;5079972;28;20841;-69
2022/07/25 04:21:18;;;;;;;6.00;5.40;;;20.30;1.00;;;;;;5095020;28;20425;-69
2022/07/25 04:23:44;;;;;;;5.00;4.60;;;20.30;1.00;;;;;;5090797;28;20194;-69
2022/07/25 04:26:10;;;;;;;6.33;4.67;;;20.30;1.00;;;;;;5074488;28;20404;-70
2022/07/25 04:28:36;;;;;;;8.03;4.80;;;20.40;1.00;;;;;;5075081;28;20470;-70
2022/07/25 04:31:02;;;;;;;5.13;4.63;;;20.40;1.00;;;;;;5090714;28;20415;-69
2022/07/25 04:33:28;;;;;;;5.27;4.83;;;20.40;1.00;;;;;;5093770;28;20170;-76
2022/07/25 04:35:57;;;;;;;5.20;4.70;;;20.50;1.00;;;;;;5094685;28;20459;-76
2022/07/25 04:38:23;;;;;;;5.07;4.13;;;20.50;1.00;;;;;;5093874;28;20431;-75
2022/07/25 04:40:48;;;;;;;5.50;5.00;;;20.50;1.00;;;;;;5094451;28;20379;-69
2022/07/25 04:43:14;;;;;;;5.23;4.83;;;20.60;1.00;;;;;;5076049;28;20185;-69
2022/07/25 04:45:41;;;;;;;4.97;4.47;;;20.50;1.00;;;;;;5073524;28;20650;-76
2022/07/25 04:48:06;;;;;;;5.53;4.37;;;20.60;1.00;;;;;;5088889;28;20668;-75
2022/07/25 04:50:32;;;;;;;4.93;4.33;;;20.60;1.00;;;;;;5094218;28;20486;-69
2022/07/25 04:52:58;;;;;;;4.83;4.40;;;20.60;1.00;;;;;;5061757;28;20274;-73
2022/07/25 04:55:37;;;;;;;;;;;;;;;;;;;;;
2022/07/25 05:01:08;;;;;;;4.90;4.30;;;20.70;1.00;;;;;;4992295;28;20452;-76
2022/07/25 05:03:34;;;;;;;5.10;4.70;;;20.80;1.00;;;;;;5069231;28;20502;-75
2022/07/25 05:06:00;;;;;;;4.57;4.27;;;20.80;1.00;;;;;;5073859;28;20405;-75
2022/07/25 05:08:26;;;;;;;6.63;4.30;;;20.80;1.00;;;;;;5088325;28;20426;-76
2022/07/25 05:10:51;;;;;;;6.83;4.57;;;20.90;1.00;;;;;;5093907;28;20696;-71
2022/07/25 05:13:17;;;;;;;4.13;3.83;;;20.90;1.00;;;;;;5088772;28;20419;-72
2022/07/25 05:15:43;;;;;;;4.30;3.90;;;20.90;1.00;;;;;;5093872;28;20193;-75
2022/07/25 05:18:12;;;;;;;6.63;4.20;;;20.90;1.00;;;;;;5092951;28;20431;-76
2022/07/25 05:20:38;;;;;;;7.33;4.47;;;21.00;1.00;;;;;;5093723;28;20453;-76
2022/07/25 05:23:07;;;;;;;5.70;5.07;;;21.00;1.00;;;;;;5078146;28;20417;-76
2022/07/25 05:25:36;;;;;;;5.60;4.30;;;21.10;1.00;;;;;;5055663;28;20444;-73
2022/07/25 05:28:02;;;;;;;6.53;4.00;;;21.20;1.00;;;;;;5089820;28;20800;-73
2022/07/25 05:30:28;;;;;;;9.00;4.20;;;21.20;1.00;;;;;;5093656;28;20430;-72
2022/07/25 05:33:02;;;;;;;4.80;4.33;;;21.30;1.00;;;;;;5091848;28;20415;-76
2022/07/25 05:35:28;;;;;;;4.50;4.10;;;21.30;1.00;;;;;;5075159;28;20537;-76
2022/07/25 05:37:55;;;;;;;3.93;3.50;;;21.40;1.00;;;;;;5078147;28;20500;-73
2022/07/25 05:40:30;;;;;;;4.50;4.20;;;21.40;1.00;;;;;;5073283;28;20166;-76
2022/07/25 05:42:56;;;;;;;4.90;3.97;;;21.40;1.00;;;;;;5072247;28;20400;-76
2022/07/25 05:45:22;;;;;;;4.63;4.20;;;21.50;1.00;;;;;;5072819;28;20478;-73
2022/07/25 05:47:48;;;;;;;4.37;3.97;;;21.60;1.00;;;;;;5072980;28;20400;-72
2022/07/25 05:50:14;;;;;;;3.70;3.50;;;21.60;1.00;;;;;;5073122;28;20399;-77
2022/07/25 05:52:39;;;;;;;4.43;4.13;;;21.60;1.00;;;;;;5072562;28;20408;-76
2022/07/25 05:55:06;;;;;;;4.43;4.03;;;21.70;1.00;;;;;;5054958;28;20812;-77
2022/07/25 05:57:31;;;;;;;3.97;3.67;;;21.70;1.00;;;;;;5072777;28;20194;-74
2022/07/25 05:59:57;;;;;;;4.43;4.13;;;21.80;1.00;;;;;;5073038;28;20424;-75
2022/07/25 06:02:23;;;;;;;5.03;3.80;;;21.90;1.00;;;;;;5072452;28;20162;-75
2022/07/25 06:04:49;;;;;;;5.87;4.50;;;21.90;1.00;;;;;;5072169;28;20779;-75
2022/07/25 06:07:15;;;;;;;4.20;3.90;;;22.00;1.00;;;;;;5072869;28;20169;-68
2022/07/25 06:09:41;;;;;;;4.10;3.80;;;22.00;1.00;;;;;;5072960;28;20573;-68
2022/07/25 06:12:07;;;;;;;4.20;3.80;;;22.10;1.00;;;;;;5072756;28;20397;-75
2022/07/25 06:14:32;;;;;;;3.80;3.47;;;22.10;1.00;;;;;;5072248;28;20682;-74
2022/07/25 06:16:58;;;;;;;4.73;4.33;;;22.20;1.00;;;;;;5072745;28;20201;-76
2022/07/25 06:19:24;;;;;;;4.23;3.83;;;22.20;1.00;;;;;;5072676;28;20209;-76
2022/07/25 06:21:50;;;;;;;13.23;4.47;;;22.30;1.00;;;;;;5072846;28;20483;-68
2022/07/25 06:24:15;;;;;;;4.33;3.93;;;22.40;1.00;;;;;;5071662;28;20581;-76
2022/07/25 06:26:42;;;;;;;4.37;4.00;;;22.50;1.00;;;;;;5072572;28;20276;-69
2022/07/25 06:29:07;;;;;;;4.83;3.90;;;22.60;1.00;;;;;;5072794;28;20174;-69
2022/07/25 06:31:33;;;;;;;6.80;4.37;;;22.60;1.00;;;;;;5072628;28;20526;-76
2022/07/25 06:33:59;;;;;;;4.03;3.73;;;22.70;1.00;;;;;;5071836;28;20423;-68
2022/07/25 06:36:25;;;;;;;4.60;3.97;;;22.80;1.00;;;;;;5072800;28;20194;-68
2022/07/25 06:38:51;;;;;;;4.17;3.87;;;23.00;1.00;;;;;;5072663;28;20253;-77
2022/07/25 06:41:16;;;;;;;4.37;3.87;;;23.10;1.00;;;;;;5072459;28;20240;-70
2022/07/25 06:43:42;;;;;;;7.50;3.90;;;23.20;1.00;;;;;;5071789;28;20236;-76
2022/07/25 06:46:08;;;;;;;3.30;3.00;;;23.30;1.00;;;;;;5071976;28;20174;-76
2022/07/25 06:48:34;;;;;;;4.30;3.60;;;23.40;1.00;;;;;;5072449;28;20201;-69
2022/07/25 06:50:59;;;;;;;4.13;3.70;;;23.40;1.00;;;;;;5072562;28;20439;-69
2022/07/25 06:53:25;;;;;;;9.07;4.17;;;23.40;1.00;;;;;;5071669;28;20209;-68
2022/07/25 06:55:51;;;;;;;5.30;3.80;;;23.40;1.00;;;;;;5072290;28;20198;-75
2022/07/25 06:58:17;;;;;;;4.13;3.83;;;23.40;1.00;;;;;;5072528;28;20184;-69
2022/07/25 07:00:42;;;;;;;4.70;4.30;;;23.40;1.00;;;;;;5072405;28;20186;-76
2022/07/25 07:03:08;;;;;;;4.43;4.07;;;23.50;1.00;;;;;;5071127;28;20185;-77
2022/07/25 07:05:36;;;;;;;5.37;3.57;;;23.50;1.00;;;;;;5072145;28;20194;-72
2022/07/25 07:08:02;;;;;;;3.53;3.23;;;23.50;1.00;;;;;;5072396;28;20512;-76
2022/07/25 07:10:29;;;;;;;4.23;3.37;;;23.60;1.00;;;;;;5075337;28;20401;-76
2022/07/25 07:13:10;;;;;;;3.80;3.50;;;23.60;1.00;;;;;;5075220;28;20431;-76
2022/07/25 07:15:37;;;;;;;3.77;3.47;;;23.70;1.00;;;;;;5075740;28;20985;-68
2022/07/25 07:18:03;;;;;;;3.37;3.17;;;23.80;1.00;;;;;;5075803;28;20428;-74
2022/07/25 07:20:29;;;;;;;3.80;3.50;;;23.90;1.00;;;;;;5075799;28;20401;-67
2022/07/25 07:22:55;;;;;;;5.87;4.20;;;24.00;1.00;;;;;;5074465;28;20763;-74
2022/07/25 07:25:22;;;;;;;5.70;3.80;;;24.00;1.00;;;;;;5075422;28;20187;-75
2022/07/25 07:27:49;;;;;;;4.20;3.73;;;24.10;1.00;;;;;;5075705;28;20162;-66
2022/07/25 07:30:14;;;;;;;4.70;4.20;;;24.20;1.00;;;;;;5075650;28;20445;-67
2022/07/25 07:32:41;;;;;;;5.20;3.20;;;24.20;1.00;;;;;;5075044;28;20776;-67
2022/07/25 07:35:08;;;;;;;3.37;3.17;;;24.30;1.00;;;;;;5075675;28;20189;-75
2022/07/25 07:37:33;;;;;;;6.83;4.67;;;24.40;1.00;;;;;;5057182;28;20452;-72
2022/07/25 07:39:59;;;;;;;6.10;4.07;;;24.50;1.00;;;;;;5074895;28;20405;-67
2022/07/25 07:42:25;;;;;;;5.80;4.33;;;24.50;1.00;;;;;;5074845;28;20167;-74
2022/07/25 07:44:50;;;;;;;5.40;3.63;;;24.70;1.00;;;;;;5057398;28;20182;-74
2022/07/25 07:47:16;;;;;;;5.87;4.10;;;24.70;1.00;;;;;;5057456;28;20166;-74
2022/07/25 07:49:42;;;;;;;4.93;4.17;;;24.80;1.00;;;;;;5057801;28;20174;-75
2022/07/25 07:52:08;;;;;;;7.07;4.03;;;24.90;1.00;;;;;;5075095;28;20170;-74
2022/07/25 07:57:18;;;;;;;3.40;3.20;;;25.00;1.00;;;;;;5075025;28;20510;-75
2022/07/25 07:59:44;;;;;;;5.20;4.27;;;25.00;1.00;;;;;;5075291;28;20408;-68
2022/07/25 08:02:10;;;;;;;3.97;3.67;;;25.00;1.00;;;;;;5074467;28;20155;-75
2022/07/25 08:04:35;;;;;;;4.03;3.70;;;24.90;1.00;;;;;;5056353;28;20194;-72
2022/07/25 08:07:01;;;;;;;4.00;3.70;;;24.90;1.00;;;;;;5075164;28;20249;-67
2022/07/25 08:09:27;;;;;;;4.20;3.90;;;25.00;1.00;;;;;;5074879;28;20166;-74
2022/07/25 08:11:52;;;;;;;3.83;3.53;;;25.10;1.00;;;;;;5074803;28;20166;-69
2022/07/25 08:14:18;;;;;;;4.73;4.27;;;25.30;1.00;;;;;;5055629;28;20670;-74
2022/07/25 08:16:44;;;;;;;4.60;4.20;;;25.40;1.00;;;;;;5074815;28;20190;-75
2022/07/25 08:19:10;;;;;;;4.30;4.00;;;25.50;1.00;;;;;;5074774;28;20630;-75
2022/07/25 08:21:36;;;;;;;5.83;4.57;;;25.60;1.00;;;;;;5074493;28;20167;-68
2022/07/25 08:24:02;;;;;;;4.87;4.47;;;25.80;1.00;;;;;;5073827;28;20435;-76
2022/07/25 08:26:29;;;;;;;4.80;4.40;;;26.10;1.00;;;;;;5074684;28;20451;-75
2022/07/25 08:28:55;;;;;;;4.50;4.10;;;26.30;1.00;;;;;;5074637;28;20249;-67
2022/07/25 08:31:20;;;;;;;5.10;4.60;;;26.30;1.00;;;;;;5073991;28;20400;-76
2022/07/25 08:33:46;;;;;;;4.53;4.10;;;26.30;1.00;;;;;;5073781;28;20198;-75
2022/07/25 08:36:12;;;;;;;5.03;4.63;;;26.30;1.00;;;;;;5074291;28;20202;-76
2022/07/25 08:38:37;;;;;;;7.53;3.90;;;26.40;1.00;;;;;;5074266;28;20249;-76
2022/07/25 08:41:03;;;;;;;5.20;4.80;;;26.60;1.00;;;;;;5074283;28;20198;-76
2022/07/25 08:43:33;;;;;;;6.03;5.00;;;26.80;1.00;;;;;;5073569;28;20166;-74
2022/07/25 08:46:00;;;;;;;5.53;5.03;;;27.00;1.00;;;;;;5074137;28;20170;-76
2022/07/25 08:48:26;;;;;;;5.80;5.30;;;27.30;1.00;;;;;;5073583;28;20401;-69
2022/07/25 08:50:55;;;;;;;5.40;4.93;;;27.40;1.00;;;;;;5073972;28;20873;-67
2022/07/25 08:53:22;;;;;;;5.97;5.57;;;27.40;1.00;;;;;;5073471;28;20174;-76
2022/07/25 08:55:48;;;;;;;5.43;4.97;;;27.40;1.00;;;;;;5074320;28;20502;-67
2022/07/25 08:58:16;;;;;;;5.77;5.17;;;27.30;1.00;;;;;;5074014;28;20396;-68
2022/07/25 09:00:42;;;;;;;7.17;5.43;;;27.30;1.00;;;;;;5073913;28;20166;-75
2022/07/25 09:03:09;;;;;;;5.63;5.23;;;27.30;1.00;;;;;;5073272;28;20444;-68
2022/07/25 09:05:36;;;;;;;5.80;5.30;;;27.20;1.00;;;;;;5073569;28;20983;-68
2022/07/25 09:08:10;;;;;;;6.03;5.53;;;27.30;1.00;;;;;;5073386;28;20750;-75
2022/07/25 09:10:38;;;;;;;5.50;5.00;;;27.30;1.00;;;;;;5073661;28;20419;-75
2022/07/25 09:13:12;;;;;;;5.10;4.70;;;27.50;1.00;;;;;;5073239;28;20400;-75
2022/07/25 09:15:59;;;;;;;5.50;5.10;;;27.70;1.00;;;;;;5073456;28;20594;-67
2022/07/25 09:18:27;;;;;;;7.00;5.80;;;28.00;1.00;;;;;;5073134;28;20440;-69
2022/07/25 09:20:57;;;;;;;5.80;5.30;;;28.30;1.00;;;;;;5073375;28;20433;-67
2022/07/25 09:23:38;;;;;;;6.10;5.27;;;28.50;1.00;;;;;;5072254;28;20400;-76
2022/07/25 09:26:07;;;;;;;5.67;5.07;;;28.60;1.00;;;;;;5073374;28;20409;-68
2022/07/25 09:28:44;;;;;;;7.80;5.47;;;28.50;1.00;;;;;;5073451;28;20396;-74
2022/07/25 09:31:10;;;;;;;5.87;5.27;;;28.60;1.00;;;;;;5073329;28;20404;-68
2022/07/25 09:33:55;;;;;;;6.37;5.83;;;28.80;1.00;;;;;;5072290;28;20400;-75
2022/07/25 09:36:21;;;;;;;5.87;5.33;;;29.00;1.00;;;;;;5072969;28;20955;-74
2022/07/25 09:39:00;;;;;;;4.97;4.57;;;29.20;1.00;;;;;;5073063;28;20393;-76
2022/07/25 09:41:37;;;;;;;6.53;5.93;;;29.60;1.00;;;;;;5072769;28;20404;-76
2022/07/25 09:44:03;;;;;;;10.77;5.77;;;29.90;1.00;;;;;;5072490;28;20412;-67
2022/07/25 09:46:30;;;;;;;6.90;5.50;;;30.10;1.00;;;;;;5073308;28;20401;-74
2022/07/25 09:48:58;;;;;;;5.93;5.37;;;30.20;1.00;;;;;;5073037;28;20404;-76
2022/07/25 09:51:27;;;;;;;5.57;5.07;;;30.10;1.00;;;;;;5073256;28;20458;-74
2022/07/25 09:53:53;;;;;;;5.97;5.43;;;30.10;1.00;;;;;;5072673;28;20429;-75
2022/07/25 09:56:19;;;;;;;5.93;5.43;;;30.20;1.00;;;;;;5073052;28;20499;-74
2022/07/25 09:58:45;;;;;;;11.90;5.30;;;30.10;1.00;;;;;;5072369;28;20170;-74
2022/07/25 10:01:16;;;;;;;5.80;5.00;;;30.10;1.00;;;;;;5073011;28;20249;-67
2022/07/25 10:04:05;;;;;;;5.50;5.10;;;30.00;1.00;;;;;;5072264;28;20190;-68
2022/07/25 10:06:55;;;;;;;14.40;5.43;;;30.00;1.00;;;;;;5073070;28;20401;-75
2022/07/25 10:09:21;;;;;;;6.17;5.67;;;29.90;1.00;;;;;;5072990;28;20415;-73
2022/07/25 10:12:09;;;;;;;7.23;5.63;;;30.00;1.00;;;;;;5073057;28;20400;-75
2022/07/25 10:14:36;;;;;;;6.10;5.60;;;29.90;1.00;;;;;;5073062;28;20860;-74
2022/07/25 10:17:03;;;;;;;6.60;5.17;;;29.90;1.00;;;;;;5072738;28;20544;-75
2022/07/25 10:19:46;;;;;;;5.73;5.23;;;29.90;1.00;;;;;;5072232;28;20428;-75
2022/07/25 10:22:13;;;;;;;7.37;5.73;;;29.90;1.00;;;;;;5072023;28;20802;-74
2022/07/25 10:24:43;;;;;;;6.47;5.87;;;29.90;1.00;;;;;;5073003;28;20762;-68
2022/07/25 10:27:12;;;;;;;6.07;5.47;;;30.00;1.00;;;;;;5072752;28;20409;-70
2022/07/25 10:29:40;;;;;;;7.43;5.70;;;30.20;1.00;;;;;;5072739;28;20411;-69
2022/07/25 10:32:08;;;;;;;5.43;5.03;;;30.50;1.00;;;;;;5072519;28;20873;-69
2022/07/25 10:34:35;;;;;;;6.80;6.20;;;30.60;1.00;;;;;;5072469;28;20439;-76
2022/07/25 10:37:15;;;;;;;6.50;6.00;;;30.70;1.00;;;;;;5072287;28;20452;-70
2022/07/25 10:39:43;;;;;;;5.60;5.17;;;30.70;1.00;;;;;;5072479;28;20408;-75
2022/07/25 10:42:16;;;;;;;6.00;5.43;;;30.80;1.00;;;;;;5072091;28;20454;-72
2022/07/25 10:45:08;;;;;;;5.33;4.93;;;31.00;1.00;;;;;;5074645;28;20424;-69
2022/07/25 10:47:41;;;;;;;5.40;4.90;;;30.90;1.00;;;;;;5076415;28;20474;-69
2022/07/25 10:50:10;;;;;;;5.90;5.30;;;30.80;1.00;;;;;;5076494;28;20919;-68
2022/07/25 10:52:41;;;;;;;4.80;4.50;;;30.70;1.00;;;;;;5075906;28;20439;-76
2022/07/25 10:55:07;;;;;;;5.53;4.70;;;30.80;1.00;;;;;;5076187;28;20420;-67
2022/07/25 10:57:33;;;;;;;7.57;5.17;;;30.80;1.00;;;;;;5076041;28;20495;-68
2022/07/25 11:00:07;;;;;;;6.17;5.27;;;30.70;1.00;;;;;;5076433;28;20439;-69
2022/07/25 11:02:32;;;;;;;5.77;4.87;;;30.70;1.00;;;;;;5075752;28;20257;-75
2022/07/25 11:05:00;;;;;;;6.07;4.80;;;30.80;1.00;;;;;;5075931;28;20518;-75
2022/07/25 11:07:27;;;;;;;5.60;5.10;;;30.90;1.00;;;;;;5076095;28;20167;-69
2022/07/25 11:09:59;;;;;;;5.43;4.93;;;30.90;1.00;;;;;;5076143;28;20404;-68
2022/07/25 11:12:25;;;;;;;6.10;5.50;;;30.90;1.00;;;;;;5075331;28;20484;-75
2022/07/25 11:14:59;;;;;;;6.07;5.57;;;30.90;1.00;;;;;;5075278;28;21012;-68
2022/07/25 11:17:25;;;;;;;8.37;6.33;;;31.00;1.00;;;;;;5075766;28;20202;-70
2022/07/25 11:20:00;;;;;;;7.57;5.90;;;31.10;1.00;;;;;;5075990;28;20816;-69
2022/07/25 11:22:27;;;;;;;6.17;4.63;;;31.30;1.00;;;;;;5075198;28;20411;-69
2022/07/25 11:24:53;;;;;;;5.43;5.00;;;31.40;1.00;;;;;;5075718;28;20773;-75
2022/07/25 11:27:26;;;;;;;7.73;6.73;;;31.50;1.00;;;;;;5075895;28;20396;-75
2022/07/25 11:30:04;;;;;;;5.13;4.63;;;31.50;1.00;;;;;;5075733;28;20411;-69
2022/07/25 11:32:41;;;;;;;5.37;4.60;;;31.90;1.00;;;;;;5075140;28;20404;-75
2022/07/25 11:35:08;;;;;;;5.07;4.67;;;32.40;1.00;;;;;;5074985;28;21003;-75
2022/07/25 11:37:37;;;;;;;4.90;4.50;;;32.30;1.00;;;;;;5057542;28;20491;-69
2022/07/25 11:40:03;;;;;;;6.10;5.13;;;32.30;1.00;;;;;;5075528;28;20420;-69
2022/07/25 11:42:39;;;;;;;5.23;4.73;;;32.60;1.00;;;;;;5074948;28;20796;-69
2022/07/25 11:45:19;;;;;;;6.77;5.07;;;32.90;1.00;;;;;;5075402;28;20427;-69
2022/07/25 11:48:00;;;;;;;5.43;5.03;;;32.90;1.00;;;;;;5075280;28;20901;-76
2022/07/25 11:50:29;;;;;;;5.30;4.80;;;32.60;1.00;;;;;;5074733;28;20913;-76
2022/07/25 11:53:03;;;;;;;5.63;5.13;;;32.00;1.00;;;;;;5074539;28;20897;-76
2022/07/25 11:55:31;;;;;;;8.93;5.53;;;31.50;1.00;;;;;;5074579;28;20425;-69
2022/07/25 11:58:00;;;;;;;5.83;5.30;;;31.10;1.00;;;;;;5075157;28;20408;-68
2022/07/25 12:00:27;;;;;;;5.70;5.00;;;30.90;1.00;;;;;;5075042;28;20397;-68
2022/07/25 12:02:53;;;;;;;5.40;5.00;;;30.60;1.00;;;;;;5056472;28;20538;-69
2022/07/25 12:05:31;;;;;;;6.90;4.80;;;30.50;1.00;;;;;;5075254;28;20943;-74
2022/07/25 12:07:59;;;;;;;5.20;4.80;;;30.30;1.00;;;;;;5074830;28;20424;-75
2022/07/25 12:10:34;;;;;;;5.57;5.13;;;30.50;1.00;;;;;;5074570;28;20769;-69
2022/07/25 12:13:01;;;;;;;6.03;5.43;;;31.50;1.00;;;;;;5074218;28;20427;-76
2022/07/25 12:15:34;;;;;;;10.87;5.33;;;32.60;1.00;;;;;;5074727;28;20490;-70
2022/07/25 12:18:01;;;;;;;5.57;5.10;;;32.90;1.00;;;;;;5057109;28;20428;-70
2022/07/25 12:20:29;;;;;;;5.57;5.17;;;33.10;1.00;;;;;;5074859;28;20425;-75
2022/07/25 12:23:03;;;;;;;5.40;4.90;;;33.50;1.00;;;;;;5056423;28;20412;-70
2022/07/25 12:25:30;;;;;;;6.03;5.43;;;33.60;1.00;;;;;;5056713;28;20420;-75
2022/07/25 12:27:57;;;;;;;4.90;4.50;;;33.80;1.00;;;;;;5074136;28;20907;-75
2022/07/25 12:30:24;;;;;;;5.23;4.73;;;33.80;1.00;;;;;;5074652;28;20758;-76
2022/07/25 12:32:50;;;;;;;6.87;5.33;;;34.10;1.00;;;;;;5072610;28;20976;-77
2022/07/25 12:35:16;;;;;;;6.50;6.00;;;34.00;1.00;;;;;;5074747;28;20508;-71
2022/07/25 12:37:42;;;;;;;5.63;5.13;;;33.40;99.90;;;;;;5074386;28;20535;-70
2022/07/25 12:40:11;;;;;;;6.00;5.43;;;32.90;1.00;;;;;;5074377;28;20389;-71
2022/07/25 12:42:37;;;;;;;6.53;5.10;;;32.30;1.00;;;;;;5073712;28;20400;-71
2022/07/25 12:45:04;;;;;;;5.83;5.40;;;31.90;1.00;;;;;;5056386;28;20485;-70
2022/07/25 12:47:30;;;;;;;5.47;5.00;;;31.50;1.00;;;;;;5071951;28;20170;-71
2022/07/25 12:49:55;;;;;;;5.43;5.03;;;31.20;1.00;;;;;;5074076;28;20776;-76
2022/07/25 12:52:21;;;;;;;6.93;6.30;;;31.00;1.00;;;;;;5073074;28;20239;-76
2022/07/25 12:54:48;;;;;;;5.63;5.23;;;30.90;1.00;;;;;;5082581;28;20681;-70
2022/07/25 12:57:14;;;;;;;5.50;5.00;;;31.10;1.00;;;;;;5092945;28;20486;-70
2022/07/25 12:59:40;;;;;;;5.73;5.23;;;31.90;1.00;;;;;;5081623;28;20401;-75
2022/07/25 13:02:06;;;;;;;5.77;5.27;;;32.70;1.00;;;;;;5055688;28;20739;-72
2022/07/25 13:04:31;;;;;;;4.70;4.40;;;32.80;1.00;;;;;;5055883;28;20443;-70
2022/07/25 13:06:58;;;;;;;6.90;6.23;;;32.60;1.00;;;;;;5055277;28;20216;-76
2022/07/25 13:09:24;;;;;;;5.90;5.40;;;32.10;1.00;;;;;;5073175;28;20279;-76
2022/07/25 13:11:51;;;;;;;5.88;5.05;;;31.60;1.00;;;;;;5073328;28;20414;-68
2022/07/25 13:14:17;;;;;;;6.37;5.77;;;31.20;1.00;;;;;;5072642;28;20193;-70
2022/07/25 13:16:44;;;;;;;6.43;5.50;;;30.90;1.00;;;;;;5073574;28;20448;-77
2022/07/25 13:19:10;;;;;;;6.80;6.20;;;30.60;1.00;;;;;;5073527;28;20178;-69